createdAt,value
2023-03-17T00:04:40.268Z,7.25
2023-03-17T00:10:45.613Z,4.38
2023-03-17T00:16:50.251Z,4.65
2023-03-17T00:22:54.500Z,6.65
2023-03-17T00:28:59.284Z,10.35
2023-03-17T00:35:05.235Z,15.40
2023-03-17T00:41:10.684Z,8.30
2023-03-17T00:47:15.568Z,4.75
2023-03-17T00:53:20.542Z,4.80
2023-03-17T00:59:27.862Z,3.70
2023-03-17T01:05:33.049Z,5.78
2023-03-17T01:11:36.652Z,3.28
2023-03-17T01:17:40.159Z,5.47
2023-03-17T01:23:45.492Z,3.97
2023-03-17T01:29:49.492Z,5.63
2023-03-17T01:35:53.291Z,4.97
2023-03-17T01:42:01.417Z,5.03
2023-03-17T01:48:04.909Z,5.57
2023-03-17T01:54:10.574Z,8.80
2023-03-17T02:00:18.077Z,13.02
2023-03-17T02:06:22.328Z,7.05
2023-03-17T02:12:26.170Z,4.65
2023-03-17T02:18:32.193Z,6.50
2023-03-17T02:24:38.299Z,4.32
2023-03-17T02:30:41.997Z,3.38
2023-03-17T02:36:46.285Z,5.13
2023-03-17T02:42:51.424Z,4.90
2023-03-17T02:48:55.753Z,5.05
2023-03-17T02:54:59.352Z,7.25
2023-03-17T03:01:04.219Z,6.32
2023-03-17T03:07:08.386Z,6.32
2023-03-17T03:13:13.727Z,5.47
2023-03-17T03:19:18.589Z,5.68
2023-03-17T03:25:22.074Z,5.10
2023-03-17T03:31:25.639Z,5.00
2023-03-17T03:37:30.423Z,5.75
2023-03-17T03:43:33.834Z,6.53
2023-03-17T03:49:37.221Z,7.38
2023-03-17T03:55:42.008Z,6.78
2023-03-17T04:01:45.677Z,5.03
2023-03-17T04:07:49.120Z,5.13
2023-03-17T04:13:55.222Z,5.15
2023-03-17T04:19:58.705Z,5.78
2023-03-17T04:26:02.504Z,4.35
2023-03-17T04:32:08.219Z,4.72
2023-03-17T04:38:13.286Z,5.32
2023-03-17T04:44:16.795Z,6.70
2023-03-17T04:50:22.091Z,3.75
2023-03-17T04:56:25.660Z,4.93
2023-03-17T05:02:29.215Z,6.03
2023-03-17T05:08:34.122Z,5.28
2023-03-17T05:14:37.616Z,5.45
2023-03-17T05:20:44.501Z,6.88
2023-03-17T05:26:49.424Z,4.72
2023-03-17T05:32:53.186Z,5.72
2023-03-17T05:38:56.673Z,6.20
2023-03-17T05:45:01.516Z,6.50
2023-03-17T05:51:05.264Z,4.65
2023-03-17T05:57:08.916Z,6.18
2023-03-17T06:03:13.709Z,4.07
2023-03-17T06:09:18.400Z,4.72
2023-03-17T06:15:22.993Z,5.55
2023-03-17T06:21:27.879Z,4.35
2023-03-17T06:27:31.320Z,5.43
2023-03-17T06:33:35.387Z,6.30
2023-03-17T06:39:41.809Z,5.88
2023-03-17T06:45:45.203Z,13.88
2023-03-17T06:51:48.873Z,8.75
2023-03-17T06:57:54.343Z,9.45
2023-03-17T07:03:58.748Z,6.10
2023-03-17T07:10:02.218Z,8.15
2023-03-17T07:16:07.335Z,7.85
2023-03-17T07:22:11.904Z,5.32
2023-03-17T07:28:15.851Z,6.82
2023-03-17T07:34:20.652Z,7.63
2023-03-17T07:40:24.439Z,7.50
2023-03-17T07:46:28.518Z,7.53
2023-03-17T07:52:34.378Z,7.30
2023-03-17T07:58:37.849Z,6.72
2023-03-17T08:04:41.482Z,4.75
2023-03-17T08:10:46.870Z,7.60
2023-03-17T08:16:50.374Z,7.75
2023-03-17T08:22:53.779Z,8.43
2023-03-17T08:28:58.613Z,7.07
2023-03-17T08:35:02.835Z,8.13
2023-03-17T08:41:08.017Z,6.88
2023-03-17T08:47:12.994Z,8.20
2023-03-17T08:53:16.427Z,6.78
2023-03-17T08:59:19.896Z,8.45
2023-03-17T09:05:25.214Z,7.63
2023-03-17T09:11:29.925Z,7.15
2023-03-17T09:17:33.327Z,6.95
2023-03-17T09:23:38.190Z,6.47
2023-03-17T09:29:43.296Z,8.13
2023-03-17T09:35:46.882Z,8.10
2023-03-17T09:41:57.118Z,7.00
2023-03-17T09:48:06.015Z,7.20
2023-03-17T09:54:12.852Z,9.82
2023-03-17T10:00:19.148Z,7.15
2023-03-17T10:06:36.877Z,5.85
2023-03-17T10:12:45.569Z,7.18
2023-03-17T10:18:54.088Z,6.20
2023-03-17T10:25:01.707Z,8.80
2023-03-17T10:31:15.572Z,6.43
2023-03-17T10:37:21.677Z,3.70
2023-03-17T10:43:29.926Z,3.67
2023-03-17T10:49:36.877Z,6.75
2023-03-17T10:55:44.805Z,5.65
2023-03-17T11:01:50.230Z,6.97
2023-03-17T11:07:58.795Z,5.00
2023-03-17T11:14:07.044Z,5.60
2023-03-17T11:20:33.293Z,7.45
2023-03-17T11:26:58.734Z,6.80
2023-03-17T11:33:07.756Z,6.13
2023-03-17T11:39:14.098Z,6.43
2023-03-17T11:45:25.385Z,6.57
2023-03-17T11:51:36.109Z,5.55
2023-03-17T11:57:43.598Z,5.68
2023-03-17T12:03:49.895Z,6.85
2023-03-17T12:10:00.478Z,4.50
2023-03-17T12:16:06.190Z,4.75
2023-03-17T12:22:11.857Z,7.30
2023-03-17T12:28:18.744Z,4.55
2023-03-17T12:34:24.305Z,3.80
2023-03-17T12:40:30.615Z,5.70
2023-03-17T12:46:50.127Z,4.78
2023-03-17T12:53:00.552Z,5.55
2023-03-17T12:59:04.828Z,5.65
2023-03-17T13:05:11.854Z,5.95
2023-03-17T13:11:17.005Z,4.18
2023-03-17T13:17:33.927Z,6.65
2023-03-17T13:23:41.688Z,3.95
2023-03-17T13:29:49.296Z,2.78
2023-03-17T13:36:10.848Z,3.38
2023-03-17T13:42:21.588Z,3.83
2023-03-17T13:48:36.350Z,2.08
2023-03-17T13:54:43.119Z,4.93
2023-03-17T14:00:48.974Z,3.88
2023-03-17T14:06:54.853Z,3.60
2023-03-17T14:13:00.960Z,3.15
2023-03-17T14:19:13.049Z,1.85
2023-03-17T14:25:18.223Z,12.90
2023-03-17T14:31:24.096Z,30.60
2023-03-17T14:37:29.604Z,5.35
2023-03-17T14:43:33.261Z,7.72
2023-03-17T14:49:37.056Z,8.07
2023-03-17T14:55:43.492Z,3.83
2023-03-17T15:01:48.660Z,4.25
2023-03-17T15:07:53.000Z,4.22
2023-03-17T15:14:07.183Z,11.63
2023-03-17T15:20:15.565Z,5.80
2023-03-17T15:26:24.077Z,4.65
2023-03-17T15:32:29.454Z,5.10
2023-03-17T15:38:33.835Z,7.10
2023-03-17T15:44:37.337Z,7.13
2023-03-17T15:50:42.474Z,5.18
2023-03-17T15:56:46.205Z,5.75
2023-03-17T16:02:50.834Z,10.18
2023-03-17T16:08:56.051Z,7.78
2023-03-17T16:15:00.723Z,5.53
2023-03-17T16:21:05.670Z,5.32
2023-03-17T16:27:15.771Z,7.65
2023-03-17T16:33:20.534Z,8.35
2023-03-17T16:39:25.812Z,5.95
2023-03-17T16:45:32.853Z,6.70
2023-03-17T16:51:36.498Z,9.02
2023-03-17T16:57:40.741Z,4.78
2023-03-17T17:03:46.104Z,6.13
2023-03-17T17:09:49.556Z,11.35
2023-03-17T17:15:53.098Z,8.95
2023-03-17T17:21:57.912Z,9.38
2023-03-17T17:28:01.941Z,6.78
2023-03-17T17:34:05.962Z,6.50
2023-03-17T17:40:14.026Z,12.82
2023-03-17T17:46:19.133Z,6.15
2023-03-17T17:52:22.720Z,7.60
2023-03-17T17:58:28.143Z,10.88
2023-03-17T18:04:32.092Z,9.52
2023-03-17T18:10:36.104Z,6.47
2023-03-17T18:16:41.676Z,7.22
2023-03-17T18:22:45.631Z,8.82
2023-03-17T18:28:49.100Z,6.95
2023-03-17T18:34:54.946Z,7.38
2023-03-17T18:40:58.386Z,8.25
2023-03-17T18:47:02.445Z,10.05
2023-03-17T18:53:07.252Z,7.05
2023-03-17T18:59:10.848Z,9.02
2023-03-17T19:05:14.438Z,5.88
2023-03-17T19:11:20.949Z,8.88
2023-03-17T19:17:24.426Z,11.50
2023-03-17T19:23:28.280Z,17.48
2023-03-17T19:29:33.670Z,19.42
2023-03-17T19:35:37.099Z,18.05
2023-03-17T19:41:41.322Z,11.02
2023-03-17T19:47:47.063Z,13.65
2023-03-17T19:53:50.484Z,29.50
2023-03-17T19:59:53.858Z,22.35
2023-03-17T20:05:58.756Z,41.05
2023-03-17T20:12:03.012Z,14.30
2023-03-17T20:18:06.875Z,27.15
2023-03-17T20:24:14.668Z,28.88
2023-03-17T20:30:18.403Z,16.02
2023-03-17T20:36:22.174Z,17.35
2023-03-17T20:42:27.084Z,14.52
2023-03-17T20:48:31.373Z,10.73
2023-03-17T20:54:36.048Z,13.50
2023-03-17T21:00:41.592Z,15.82
2023-03-17T21:06:45.227Z,17.63
2023-03-17T21:12:48.922Z,15.32
2023-03-17T21:18:54.125Z,13.75
2023-03-17T21:24:57.575Z,18.60
2023-03-17T21:31:01.336Z,14.75
2023-03-17T21:37:06.463Z,14.88
2023-03-17T21:43:09.894Z,23.30
2023-03-17T21:49:13.302Z,16.75
2023-03-17T21:55:18.919Z,16.63
2023-03-17T22:01:22.853Z,14.50
2023-03-17T22:07:26.434Z,16.70
2023-03-17T22:13:31.393Z,17.08
2023-03-17T22:19:34.923Z,15.27
2023-03-17T22:25:39.055Z,11.13
2023-03-17T22:31:43.892Z,14.52
2023-03-17T22:37:47.889Z,10.90
2023-03-17T22:43:51.385Z,10.95
2023-03-17T22:49:56.206Z,10.27
2023-03-17T22:55:59.756Z,7.18
2023-03-17T23:02:03.392Z,7.68
2023-03-17T23:08:08.240Z,8.77
2023-03-17T23:14:11.733Z,7.68
2023-03-17T23:20:16.068Z,10.55
2023-03-17T23:26:21.466Z,8.25
2023-03-17T23:32:25.262Z,11.80
2023-03-17T23:38:28.750Z,9.27
2023-03-17T23:44:33.859Z,10.40
2023-03-17T23:50:37.524Z,11.90
2023-03-17T23:56:40.979Z,10.02
